Airfield :
LOGIN :

Register | Disclaimer

   EN    FR    IT 

 










Legend :    VFR   Marginal VFR   IFR   Intensive IFR   Very Intensive IFR
Visi :
Ceiling :
>= 8 km
>= 3000ft
5 to 8 km
1000 to 3000 ft
1500m to 5 km
500 to 1000 ft
800 to 1500m
200 to 500 ft
< 800m
< 200 ft
Symbols :   Thunderstorms  Fog  Heavy snow  Heavy precipitations  Wind > 20 kt
SIGMETs :     Misc.  Thunderstorms  Icing  Turbulence  Mountain Waves  Volcanic Ashes






- Airport Elevation : 25 ft
- IATA code : QCY


EGXC - RAF Coningsby

CURRENT METAR :
  • 230750Z 10002KT 9999 -RADZ FEW004 BKN006 08/08 Q1005 TEMPO BKN007 RMK YLO1 TEMPO GRN

EXPIRED METARs :
  • 230708Z 05003KT 9999 FEW004 OVC008 08/08 Q1005 TEMPO 3000 -RADZ SCT006 RMK GRN TEMPO YLO1
  • 230650Z 05002KT 3500 -RADZ FEW003 OVC008 08/08 Q1005 TEMPO SCT005 RMK YLO1 TEMPO YLO1
  • 230550Z 11002KT 2500 RA BKN010 OVC020 08/08 Q1006 TEMPO 5000 -RA SCT006 RMK YLO1 TEMPO YLO1
  • 230509Z 20002KT 6000 -RA FEW012 BKN020 08/07 Q1006 RERA TEMPO 3500 RA SCT012 RMK WHT TEMPO YLO1

TAF TAF EGXC
Valid from the 23 at 06:00 until the 24 at 00:00 UTC


230427Z 2306/2324 17005KT 9999 BKN015
TEMPO 2306/2310 BKN010
PROB30
TEMPO 2306/2309 3500 RA BKN005
BECMG 2309/2312 FEW010 BKN045
TEMPO 2312/2316 BKN012
PROB30
TEMPO 2313/2315 7000 -RA



MET'MAP, your aeronautical weather chart ! - Copyright ORBIFLY December 2007 - Disclaimer

ORBIFLY MET'MAP TEAM :

Programming & Development : Alexandra Zaïnal
Concept & original design : Baudouin d'Aumeries
Assistance for programming : Marc-Olivier Méhu
Technical & hardware support : Manuel Goepfert

Contact : metmap@orbifly.com




SOURCES & CREDITS :

   NOAA